createdAt,value
2023-01-02T00:00:28.232Z,99014.19
2023-01-02T00:02:54.775Z,99015.69
2023-01-02T00:05:21.424Z,99021.06
2023-01-02T00:07:47.852Z,99032.06
2023-01-02T00:10:14.372Z,99022.44
2023-01-02T00:12:40.972Z,99013.00
2023-01-02T00:15:07.732Z,99015.03
2023-01-02T00:17:34.253Z,99017.72
2023-01-02T00:20:00.692Z,99021.06
2023-01-02T00:22:27.081Z,99021.94
2023-01-02T00:24:53.451Z,99011.66
2023-01-02T00:27:19.872Z,99005.78
2023-01-02T00:29:46.278Z,99009.31
2023-01-02T00:32:12.784Z,99011.00
2023-01-02T00:34:39.192Z,99020.56
2023-01-02T00:37:05.591Z,99001.38
2023-01-02T00:39:32.140Z,99006.94
2023-01-02T00:41:58.524Z,99011.00
2023-01-02T00:44:24.879Z,99004.94
2023-01-02T00:46:51.349Z,99008.97
2023-01-02T00:49:17.861Z,99011.81
2023-01-02T00:51:44.288Z,99006.44
2023-01-02T00:54:10.866Z,98990.09
2023-01-02T00:56:37.326Z,99001.22
2023-01-02T00:59:03.765Z,98988.25
2023-01-02T01:01:30.474Z,98981.53
2023-01-02T01:03:57.083Z,98992.09
2023-01-02T01:06:23.591Z,98976.63
2023-01-02T01:08:50.089Z,98980.00
2023-01-02T01:11:17.674Z,98969.38
2023-01-02T01:13:45.182Z,98970.06
2023-01-02T01:16:17.134Z,98977.47
2023-01-02T01:18:44.276Z,98981.16
2023-01-02T01:21:13.869Z,98975.78
2023-01-02T01:23:40.389Z,98969.88
2023-01-02T01:26:12.096Z,98970.06
2023-01-02T01:28:40.333Z,98977.13
2023-01-02T01:31:10.261Z,98980.81
2023-01-02T01:33:37.576Z,98968.88
2023-01-02T01:36:08.304Z,98968.50
2023-01-02T01:38:35.160Z,98975.09
2023-01-02T01:41:02.841Z,98978.47
2023-01-02T01:43:44.646Z,98981.16
2023-01-02T01:46:18.121Z,98984.84
2023-01-02T01:48:45.619Z,98990.41
2023-01-02T01:51:13.123Z,98996.84
2023-01-02T01:53:40.581Z,99003.22
2023-01-02T01:56:10.621Z,98995.34
2023-01-02T01:58:43.005Z,98996.16
2023-01-02T02:01:12.860Z,98995.84
2023-01-02T02:03:42.371Z,98999.03
2023-01-02T02:06:10.687Z,98999.88
2023-01-02T02:08:47.992Z,98990.44
2023-01-02T02:11:14.529Z,98984.38
2023-01-02T02:13:42.060Z,98980.34
2023-01-02T02:16:25.793Z,98978.13
2023-01-02T02:19:01.944Z,98983.19
2023-01-02T02:21:49.826Z,98983.34
2023-01-02T02:24:34.757Z,98984.19
2023-01-02T02:27:35.474Z,98969.56
2023-01-02T02:30:08.007Z,98977.31
2023-01-02T02:32:52.224Z,98987.38
2023-01-02T02:35:49.382Z,98983.53
2023-01-02T02:39:01.311Z,98982.00
2023-01-02T02:41:38.585Z,98983.34
2023-01-02T02:44:11.966Z,98978.13
2023-01-02T02:46:46.873Z,98967.19
2023-01-02T02:49:31.523Z,98971.91
2023-01-02T02:51:58.000Z,98966.53
2023-01-02T02:54:40.437Z,98962.78
2023-01-02T02:57:08.286Z,98966.69
2023-01-02T02:59:36.876Z,98972.56
2023-01-02T03:02:05.195Z,98964.00
2023-01-02T03:04:32.114Z,98961.47
2023-01-02T03:07:07.305Z,98960.09
2023-01-02T03:09:33.619Z,98958.59
2023-01-02T03:12:00.017Z,98975.59
2023-01-02T03:14:47.905Z,98976.97
2023-01-02T03:17:54.031Z,98978.63
2023-01-02T03:20:25.223Z,98977.47
2023-01-02T03:22:58.169Z,98983.69
2023-01-02T03:25:24.936Z,98973.13
2023-01-02T03:27:56.534Z,98980.66
2023-01-02T03:30:25.363Z,98973.25
2023-01-02T03:33:00.153Z,98967.34
2023-01-02T03:35:36.181Z,98973.44
2023-01-02T03:38:06.485Z,98982.69
2023-01-02T03:40:39.340Z,98975.59
2023-01-02T03:43:10.873Z,98970.06
2023-01-02T03:45:44.090Z,98972.25
2023-01-02T03:48:23.723Z,98975.63
2023-01-02T03:50:55.862Z,98979.31
2023-01-02T03:53:23.080Z,98981.19
2023-01-02T03:56:17.528Z,98982.53
2023-01-02T03:58:43.866Z,98986.06
2023-01-02T04:01:21.812Z,99000.72
2023-01-02T04:03:57.581Z,98995.47
2023-01-02T04:06:31.777Z,98999.22
2023-01-02T04:09:14.775Z,98997.50
2023-01-02T04:11:45.309Z,98995.16
2023-01-02T04:14:20.169Z,98990.09
2023-01-02T04:16:49.660Z,98988.75
2023-01-02T04:19:24.264Z,98988.94
2023-01-02T04:21:53.889Z,98987.22
2023-01-02T04:24:28.037Z,98991.44
2023-01-02T04:27:03.149Z,98998.38
2023-01-02T04:29:30.025Z,98998.16
2023-01-02T04:32:03.874Z,98994.47
2023-01-02T04:34:35.489Z,98989.94
2023-01-02T04:37:02.160Z,99002.91
2023-01-02T04:39:29.298Z,98999.84
2023-01-02T04:41:55.909Z,98999.66
2023-01-02T04:44:22.545Z,99003.56
2023-01-02T04:46:49.088Z,99002.22
2023-01-02T04:49:15.562Z,99012.81
2023-01-02T04:51:41.968Z,99007.28
2023-01-02T04:54:11.320Z,99011.13
2023-01-02T04:56:38.101Z,99008.63
2023-01-02T04:59:04.541Z,99003.91
2023-01-02T05:01:31.196Z,99015.84
2023-01-02T05:03:57.988Z,99005.41
2023-01-02T05:06:25.729Z,99004.56
2023-01-02T05:08:52.350Z,99003.91
2023-01-02T05:11:20.946Z,99010.13
2023-01-02T05:13:47.461Z,99006.09
2023-01-02T05:16:14.128Z,99008.63
2023-01-02T05:18:40.883Z,99017.22
2023-01-02T05:21:29.070Z,99024.44
2023-01-02T05:23:57.251Z,99028.97
2023-01-02T05:26:23.735Z,99027.81
2023-01-02T05:28:53.002Z,99022.09
2023-01-02T05:31:20.012Z,99025.13
2023-01-02T05:33:52.490Z,99015.50
2023-01-02T05:36:19.830Z,99019.06
2023-01-02T05:38:46.349Z,99038.41
2023-01-02T05:41:13.103Z,99034.34
2023-01-02T05:43:39.691Z,99035.38
2023-01-02T05:46:11.064Z,99043.94
2023-01-02T05:48:38.424Z,99044.75
2023-01-02T05:51:06.913Z,99037.38
2023-01-02T05:53:33.736Z,99038.03
2023-01-02T05:56:13.873Z,99046.41
2023-01-02T05:58:42.424Z,99040.56
2023-01-02T06:01:14.937Z,99033.81
2023-01-02T06:03:48.638Z,99049.78
2023-01-02T06:06:17.031Z,99040.41
2023-01-02T06:08:44.012Z,99042.75
2023-01-02T06:11:10.848Z,99037.53
2023-01-02T06:13:38.778Z,99037.53
2023-01-02T06:16:07.465Z,99051.66
2023-01-02T06:18:35.212Z,99050.97
2023-01-02T06:21:03.642Z,99046.59
2023-01-02T06:23:30.182Z,99045.44
2023-01-02T06:26:05.468Z,99046.75
2023-01-02T06:28:31.939Z,99035.50
2023-01-02T06:31:06.875Z,99041.88
2023-01-02T06:33:33.400Z,99056.34
2023-01-02T06:36:05.056Z,99051.25
2023-01-02T06:38:31.877Z,99059.34
2023-01-02T06:41:00.107Z,99056.25
2023-01-02T06:43:28.170Z,99061.16
2023-01-02T06:46:00.771Z,99049.00
2023-01-02T06:48:27.770Z,99046.63
2023-01-02T06:50:54.230Z,99053.41
2023-01-02T06:53:20.898Z,99060.22
2023-01-02T06:55:56.727Z,99050.88
2023-01-02T06:58:24.123Z,99044.44
2023-01-02T07:00:51.063Z,99049.47
2023-01-02T07:03:18.390Z,99049.13
2023-01-02T07:05:45.229Z,99046.28
2023-01-02T07:08:12.802Z,99061.69
2023-01-02T07:10:39.696Z,99079.22
2023-01-02T07:13:06.134Z,99076.03
2023-01-02T07:15:33.516Z,99077.72
2023-01-02T07:18:00.381Z,99075.09
2023-01-02T07:20:26.804Z,99075.09
2023-01-02T07:22:54.500Z,99073.38
2023-01-02T07:25:21.854Z,99075.09
2023-01-02T07:27:48.652Z,99076.44
2023-01-02T07:30:15.508Z,99074.06
2023-01-02T07:32:43.224Z,99072.53
2023-01-02T07:35:11.072Z,99071.38
2023-01-02T07:37:37.624Z,99072.44
2023-01-02T07:40:05.032Z,99072.91
2023-01-02T07:42:31.667Z,99077.78
2023-01-02T07:44:58.078Z,99069.03
2023-01-02T07:47:24.559Z,99069.03
2023-01-02T07:49:51.139Z,99077.78
2023-01-02T07:52:17.761Z,99082.47
2023-01-02T07:54:44.362Z,99089.72
2023-01-02T07:57:10.910Z,99086.53
2023-01-02T07:59:37.487Z,99091.91
2023-01-02T08:02:04.058Z,99097.59
2023-01-02T08:04:30.576Z,99107.69
2023-01-02T08:06:57.143Z,99107.63
2023-01-02T08:09:23.735Z,99123.09
2023-01-02T08:11:50.345Z,99115.69
2023-01-02T08:14:23.270Z,99124.94
2023-01-02T08:16:50.407Z,99123.78
2023-01-02T08:19:17.074Z,99126.47
2023-01-02T08:21:43.543Z,99120.63
2023-01-02T08:24:10.175Z,99112.53
2023-01-02T08:26:36.765Z,99119.28
2023-01-02T08:29:03.289Z,99127.25
2023-01-02T08:31:29.824Z,99120.34
2023-01-02T08:33:56.525Z,99121.38
2023-01-02T08:36:23.183Z,99137.03
2023-01-02T08:38:49.709Z,99128.97
2023-01-02T08:41:39.763Z,99141.38
2023-01-02T08:44:06.645Z,99138.41
2023-01-02T08:46:42.032Z,99139.78
2023-01-02T08:49:09.780Z,99160.84
2023-01-02T08:51:37.317Z,99158.50
2023-01-02T08:54:03.791Z,99155.34
2023-01-02T08:56:32.128Z,99163.41
2023-01-02T08:59:10.397Z,99172.38
2023-01-02T09:01:38.266Z,99177.38
2023-01-02T09:04:11.994Z,99173.03
2023-01-02T09:06:39.600Z,99180.63
2023-01-02T09:09:11.377Z,99180.63
2023-01-02T09:11:43.173Z,99187.19
2023-01-02T09:14:09.649Z,99189.72
2023-01-02T09:16:36.119Z,99203.81
2023-01-02T09:19:03.872Z,99198.78
2023-01-02T09:21:30.700Z,99213.06
2023-01-02T09:23:57.435Z,99216.06
2023-01-02T09:26:24.035Z,99231.19
2023-01-02T09:28:50.866Z,99234.63
2023-01-02T09:31:18.594Z,99232.94
2023-01-02T09:33:47.046Z,99242.66
2023-01-02T09:36:18.662Z,99252.22
2023-01-02T09:39:00.105Z,99258.06
2023-01-02T09:41:32.658Z,99263.66
2023-01-02T09:44:04.900Z,99255.59
2023-01-02T09:46:48.455Z,99263.03
2023-01-02T09:49:21.589Z,99266.97
2023-01-02T09:51:48.392Z,99280.41
2023-01-02T09:54:23.664Z,99288.25
2023-01-02T09:57:10.293Z,99289.84
2023-01-02T09:59:49.370Z,99302.75
2023-01-02T10:02:22.009Z,99320.06
2023-01-02T10:04:51.479Z,99321.78
2023-01-02T10:07:32.935Z,99322.41
2023-01-02T10:10:18.900Z,99337.19
2023-01-02T10:12:51.080Z,99342.16
2023-01-02T10:15:24.839Z,99355.50
2023-01-02T10:17:58.300Z,99361.75
2023-01-02T10:20:30.335Z,99369.09
2023-01-02T10:23:23.185Z,99373.09
2023-01-02T10:25:53.319Z,99380.44
2023-01-02T10:28:32.458Z,99385.22
2023-01-02T10:31:28.999Z,99383.13
2023-01-02T10:34:03.774Z,99377.63
2023-01-02T10:36:35.958Z,99388.53
2023-01-02T10:39:05.918Z,99389.56
2023-01-02T10:41:35.879Z,99393.34
2023-01-02T10:44:05.617Z,99396.34
2023-01-02T10:46:35.755Z,99396.31
2023-01-02T10:49:04.932Z,99394.75
2023-01-02T10:51:32.231Z,99397.44
2023-01-02T10:54:09.909Z,99400.84
2023-01-02T10:56:39.577Z,99407.88
2023-01-02T10:59:35.263Z,99405.34
2023-01-02T11:02:04.212Z,99408.88
2023-01-02T11:04:31.099Z,99405.94
2023-01-02T11:07:00.665Z,99402.66
2023-01-02T11:09:28.859Z,99408.28
2023-01-02T11:12:08.009Z,99401.09
2023-01-02T11:14:36.592Z,99396.53
2023-01-02T11:17:06.984Z,99405.03
2023-01-02T11:19:43.774Z,99411.91
2023-01-02T11:22:12.791Z,99404.44
2023-01-02T11:25:00.706Z,99401.75
2023-01-02T11:27:35.966Z,99401.31
2023-01-02T11:30:04.488Z,99405.84
2023-01-02T11:32:39.967Z,99394.09
2023-01-02T11:35:38.460Z,99393.09
2023-01-02T11:38:05.263Z,99395.53
2023-01-02T11:40:32.241Z,99404.19
2023-01-02T11:43:24.928Z,99392.88
2023-01-02T11:45:53.063Z,99387.34
2023-01-02T11:48:23.712Z,99392.88
2023-01-02T11:50:50.920Z,99395.75
2023-01-02T11:53:21.402Z,99391.66
2023-01-02T11:55:59.471Z,99396.84
2023-01-02T11:58:37.354Z,99389.41
2023-01-02T12:01:18.109Z,99384.88
2023-01-02T12:03:45.155Z,99389.56
2023-01-02T12:06:22.123Z,99391.25
2023-01-02T12:09:03.997Z,99395.63
2023-01-02T12:11:41.501Z,99399.44
2023-01-02T12:14:08.830Z,99400.28
2023-01-02T12:16:42.619Z,99407.38
2023-01-02T12:19:48.008Z,99417.38
2023-01-02T12:22:35.974Z,99420.06
2023-01-02T12:25:33.365Z,99413.03
2023-01-02T12:28:25.800Z,99414.69
2023-01-02T12:31:27.975Z,99430.25
2023-01-02T12:34:04.446Z,99450.28
2023-01-02T12:36:51.736Z,99452.13
2023-01-02T12:39:39.138Z,99459.50
2023-01-02T12:42:39.799Z,99458.50
2023-01-02T12:45:18.068Z,99471.63
2023-01-02T12:48:06.143Z,99467.56
2023-01-02T12:50:46.913Z,99459.09
2023-01-02T12:53:27.237Z,99464.44
2023-01-02T12:56:20.429Z,99456.81
2023-01-02T12:59:19.997Z,99453.13
2023-01-02T13:01:54.929Z,99465.00
2023-01-02T13:04:24.025Z,99469.50
2023-01-02T13:07:17.192Z,99466.53
2023-01-02T13:09:45.584Z,99470.31
2023-01-02T13:12:25.495Z,99480.25
2023-01-02T13:15:01.792Z,99470.63
2023-01-02T13:17:43.185Z,99466.97
2023-01-02T13:20:34.460Z,99460.47
2023-01-02T13:23:31.621Z,99460.19
2023-01-02T13:26:06.829Z,99471.81
2023-01-02T13:28:54.618Z,99468.72
2023-01-02T13:34:14.582Z,99452.00
2023-01-02T13:36:45.992Z,99446.22
2023-01-02T13:39:26.003Z,99445.38
2023-01-02T13:42:20.322Z,99455.00
2023-01-02T13:45:11.242Z,99461.06
2023-01-02T13:47:39.061Z,99471.09
2023-01-02T13:50:18.160Z,99482.25
2023-01-02T13:53:01.330Z,99489.44
2023-01-02T13:55:31.704Z,99492.72
2023-01-02T13:58:17.762Z,99501.13
2023-01-02T14:00:55.055Z,99502.41
2023-01-02T14:03:22.678Z,99496.31
2023-01-02T14:06:30.583Z,99507.47
2023-01-02T14:09:05.879Z,99508.47
2023-01-02T14:11:55.266Z,99513.13
2023-01-02T14:14:44.720Z,99529.78
2023-01-02T14:17:42.366Z,99539.84
2023-01-02T14:20:29.831Z,99536.25
2023-01-02T14:23:00.813Z,99530.72
2023-01-02T14:25:28.279Z,99536.34
2023-01-02T14:28:06.003Z,99546.63
2023-01-02T14:30:37.896Z,99553.00
2023-01-02T14:33:08.076Z,99555.50
2023-01-02T14:35:38.829Z,99554.53
2023-01-02T14:38:20.367Z,99565.06
2023-01-02T14:40:47.733Z,99556.31
2023-01-02T14:43:32.800Z,99556.84
2023-01-02T14:46:04.995Z,99560.50
2023-01-02T14:48:48.447Z,99570.47
2023-01-02T14:51:29.613Z,99584.84
2023-01-02T14:54:00.113Z,99596.97
2023-01-02T14:56:41.490Z,99589.47
2023-01-02T14:59:16.492Z,99595.22
2023-01-02T15:01:47.960Z,99605.56
2023-01-02T15:04:44.175Z,99598.28
2023-01-02T15:07:23.903Z,99609.88
2023-01-02T15:09:58.743Z,99609.13
2023-01-02T15:12:46.922Z,99618.88
2023-01-02T15:15:18.793Z,99625.84
2023-01-02T15:17:48.003Z,99620.72
2023-01-02T15:20:21.437Z,99627.25
2023-01-02T15:22:48.006Z,99623.78
2023-01-02T15:25:33.409Z,99624.50
2023-01-02T15:27:59.803Z,99631.69
2023-01-02T15:30:34.448Z,99651.41
2023-01-02T15:33:00.807Z,99640.25
2023-01-02T15:35:34.342Z,99647.44
2023-01-02T15:38:00.893Z,99652.09
2023-01-02T15:40:31.943Z,99652.47
2023-01-02T15:43:28.594Z,99664.00
2023-01-02T15:45:55.480Z,99647.88
2023-01-02T15:48:23.779Z,99644.22
2023-01-02T15:50:53.230Z,99658.59
2023-01-02T15:53:27.370Z,99664.53
2023-01-02T15:55:54.456Z,99664.06
2023-01-02T15:58:25.385Z,99667.84
2023-01-02T16:01:14.934Z,99676.03
2023-01-02T16:04:01.832Z,99680.88
2023-01-02T16:06:34.476Z,99683.78
2023-01-02T16:09:03.938Z,99691.81
2023-01-02T16:11:32.048Z,99696.94
2023-01-02T16:14:19.269Z,99698.47
2023-01-02T16:16:51.683Z,99708.59
2023-01-02T16:19:43.767Z,99730.13
2023-01-02T16:22:10.123Z,99742.59
2023-01-02T16:24:43.524Z,99744.53
2023-01-02T16:27:15.705Z,99750.91
2023-01-02T16:29:43.696Z,99745.06
2023-01-02T16:32:30.967Z,99753.00
2023-01-02T16:35:17.160Z,99755.19
2023-01-02T16:37:56.112Z,99758.09
2023-01-02T16:41:01.379Z,99757.88
2023-01-02T16:43:13.509Z,99767.25
2023-01-02T16:45:39.975Z,99772.59
2023-01-02T16:48:08.430Z,99773.44
2023-01-02T16:50:41.051Z,99783.53
2023-01-02T16:53:08.540Z,99781.72
2023-01-02T16:55:34.974Z,99789.13
2023-01-02T16:58:01.401Z,99792.28
2023-01-02T17:00:27.884Z,99808.34
2023-01-02T17:02:54.492Z,99804.84
2023-01-02T17:05:42.448Z,99808.13
2023-01-02T17:08:08.840Z,99810.69
2023-01-02T17:10:35.211Z,99817.75
2023-01-02T17:13:04.784Z,99818.34
2023-01-02T17:15:32.298Z,99819.44
2023-01-02T17:17:59.217Z,99828.78
2023-01-02T17:20:27.324Z,99839.38
2023-01-02T17:22:53.723Z,99828.78
2023-01-02T17:25:20.296Z,99839.00
2023-01-02T17:27:46.772Z,99834.78
2023-01-02T17:30:15.012Z,99838.16
2023-01-02T17:32:43.073Z,99846.81
2023-01-02T17:35:10.792Z,99855.56
2023-01-02T17:37:38.694Z,99852.66
2023-01-02T17:40:07.143Z,99856.19
2023-01-02T17:42:33.603Z,99853.75
2023-01-02T17:45:00.055Z,99862.38
2023-01-02T17:50:13.114Z,99874.19
2023-01-02T17:52:39.618Z,99867.38
2023-01-02T17:55:10.258Z,99876.75
2023-01-02T17:57:38.931Z,99868.97
2023-01-02T18:00:08.502Z,99866.75
2023-01-02T18:02:35.282Z,99870.91
2023-01-02T18:05:02.556Z,99865.19
2023-01-02T18:07:29.026Z,99869.06
2023-01-02T18:10:07.718Z,99877.84
2023-01-02T18:12:37.797Z,99873.41
2023-01-02T18:15:11.308Z,99888.00
2023-01-02T18:17:37.906Z,99893.28
2023-01-02T18:20:10.321Z,99890.97
2023-01-02T18:22:39.929Z,99888.13
2023-01-02T18:25:25.012Z,99902.94
2023-01-02T18:27:53.137Z,99903.16
2023-01-02T18:30:23.443Z,99914.09
2023-01-02T18:32:57.175Z,99908.34
2023-01-02T18:35:56.758Z,99910.84
2023-01-02T18:38:31.660Z,99924.13
2023-01-02T18:40:58.663Z,99935.25
2023-01-02T18:43:39.291Z,99937.94
2023-01-02T18:47:01.751Z,99956.94
2023-01-02T18:49:26.911Z,99956.44
2023-01-02T18:52:12.389Z,99947.88
2023-01-02T18:54:44.507Z,99945.94
2023-01-02T18:57:16.754Z,99960.16
2023-01-02T18:59:46.159Z,99955.06
2023-01-02T19:02:42.275Z,99956.31
2023-01-02T19:05:30.561Z,99965.03
2023-01-02T19:08:12.660Z,99962.91
2023-01-02T19:10:42.934Z,99975.78
2023-01-02T19:13:24.561Z,99967.88
2023-01-02T19:16:04.108Z,99972.25
2023-01-02T19:18:45.676Z,99975.44
2023-01-02T19:21:18.105Z,99984.19
2023-01-02T19:23:50.482Z,99985.50
2023-01-02T19:26:23.808Z,99995.06
2023-01-02T19:29:08.928Z,100007.94
2023-01-02T19:32:03.817Z,100008.25
2023-01-02T19:34:37.243Z,100010.13
2023-01-02T19:37:12.432Z,100015.06
2023-01-02T19:39:52.148Z,100019.00
2023-01-02T19:42:19.481Z,100023.97
2023-01-02T19:45:21.121Z,100021.16
2023-01-02T19:47:49.272Z,100026.50
2023-01-02T19:50:20.124Z,100037.19
2023-01-02T19:52:47.100Z,100043.94
2023-01-02T19:55:13.963Z,100037.59
2023-01-02T19:57:40.518Z,100043.06
2023-01-02T20:00:12.621Z,100046.72
2023-01-02T20:02:45.200Z,100053.03
2023-01-02T20:05:14.731Z,100048.63
2023-01-02T20:07:44.590Z,100049.19
2023-01-02T20:10:12.071Z,100056.56
2023-01-02T20:12:41.450Z,100056.13
2023-01-02T20:15:20.740Z,100057.63
2023-01-02T20:17:47.516Z,100063.50
2023-01-02T20:20:16.657Z,100071.94
2023-01-02T20:22:43.718Z,100068.53
2023-01-02T20:25:12.033Z,100070.22
2023-01-02T20:27:38.540Z,100077.72
2023-01-02T20:30:06.999Z,100079.88
2023-01-02T20:32:33.389Z,100073.47
2023-01-02T20:34:59.829Z,100077.06
2023-01-02T20:37:26.550Z,100081.69
2023-01-02T20:39:53.987Z,100084.47
2023-01-02T20:42:21.411Z,100090.66
2023-01-02T20:44:48.731Z,100095.06
2023-01-02T20:47:15.220Z,100097.31
2023-01-02T20:49:42.304Z,100101.28
2023-01-02T20:52:08.968Z,100101.09
2023-01-02T20:54:35.751Z,100110.50
2023-01-02T20:57:05.339Z,100111.22
2023-01-02T20:59:31.960Z,100108.88
2023-01-02T21:01:58.645Z,100118.63
2023-01-02T21:04:34.227Z,100118.09
2023-01-02T21:07:03.505Z,100115.31
2023-01-02T21:09:30.125Z,100111.53
2023-01-02T21:11:56.485Z,100108.34
2023-01-02T21:14:22.957Z,100118.09
2023-01-02T21:16:49.460Z,100118.63
2023-01-02T21:19:16.084Z,100126.97
2023-01-02T21:21:42.492Z,100136.69
2023-01-02T21:24:08.966Z,100135.75
2023-01-02T21:26:35.415Z,100138.53
2023-01-02T21:29:03.009Z,100148.03
2023-01-02T21:31:29.760Z,100142.16
2023-01-02T21:33:56.352Z,100138.06
2023-01-02T21:36:25.691Z,100135.09
2023-01-02T21:38:52.192Z,100140.84
2023-01-02T21:41:37.533Z,100147.78
2023-01-02T21:44:04.020Z,100147.03
2023-01-02T21:46:30.480Z,100145.22
2023-01-02T21:48:56.995Z,100150.28
2023-01-02T21:51:26.487Z,100159.88
2023-01-02T21:53:57.155Z,100162.25
2023-01-02T21:56:23.529Z,100164.91
2023-01-02T21:58:50.005Z,100162.91
2023-01-02T22:01:16.586Z,100168.69
2023-01-02T22:03:43.225Z,100161.63
2023-01-02T22:06:10.254Z,100168.47
2023-01-02T22:08:36.706Z,100168.69
2023-01-02T22:11:21.547Z,100181.72
2023-01-02T22:13:47.951Z,100175.53
2023-01-02T22:16:14.726Z,100184.03
2023-01-02T22:18:41.105Z,100192.16
2023-01-02T22:21:07.463Z,100186.28
2023-01-02T22:23:33.850Z,100184.38
2023-01-02T22:26:00.316Z,100192.28
2023-01-02T22:28:26.721Z,100196.69
2023-01-02T22:30:53.178Z,100202.66
2023-01-02T22:33:19.570Z,100206.09
2023-01-02T22:35:45.957Z,100206.94
2023-01-02T22:38:12.532Z,100218.88
2023-01-02T22:40:39.105Z,100220.06
2023-01-02T22:43:06.498Z,100216.34
2023-01-02T22:45:44.932Z,100220.81
2023-01-02T22:48:23.871Z,100224.84
2023-01-02T22:50:52.919Z,100223.16
2023-01-02T22:53:39.346Z,100222.94
2023-01-02T22:56:18.182Z,100223.28
2023-01-02T22:58:45.077Z,100220.16
2023-01-02T23:01:24.263Z,100224.03
2023-01-02T23:03:51.208Z,100221.97
2023-01-02T23:06:22.170Z,100222.72
2023-01-02T23:08:49.552Z,100220.59
2023-01-02T23:11:15.943Z,100224.22
2023-01-02T23:13:43.190Z,100235.09
2023-01-02T23:16:28.227Z,100236.88
2023-01-02T23:19:12.992Z,100243.09
2023-01-02T23:21:40.160Z,100239.97
2023-01-02T23:24:06.942Z,100247.16
2023-01-02T23:26:37.401Z,100251.09
2023-01-02T23:29:06.950Z,100254.63
2023-01-02T23:31:39.374Z,100257.28
2023-01-02T23:34:06.247Z,100250.47
2023-01-02T23:36:33.005Z,100244.19
2023-01-02T23:38:59.495Z,100249.53
2023-01-02T23:41:26.092Z,100250.94
2023-01-02T23:43:52.592Z,100250.81
2023-01-02T23:46:19.046Z,100257.44
2023-01-02T23:48:45.466Z,100255.41
2023-01-02T23:51:11.883Z,100261.50
2023-01-02T23:53:38.274Z,100266.13
2023-01-02T23:56:15.450Z,100258.94
2023-01-02T23:58:41.777Z,100259.34
